createdAt,value
2022-11-05T00:02:53.048Z,18.58
2022-11-05T00:08:16.120Z,18.55
2022-11-05T00:13:37.761Z,18.53
2022-11-05T00:18:42.250Z,18.57
2022-11-05T00:24:04.139Z,18.58
2022-11-05T00:29:08.718Z,18.55
2022-11-05T00:34:13.371Z,18.54
2022-11-05T00:39:18.000Z,18.52
2022-11-05T00:44:40.429Z,18.54
2022-11-05T00:49:44.689Z,18.53
2022-11-05T00:54:48.920Z,18.55
2022-11-05T00:59:52.789Z,18.53
2022-11-05T01:04:57.069Z,18.57
2022-11-05T01:10:01.269Z,18.57
2022-11-05T01:15:06.373Z,18.62
2022-11-05T01:20:11.839Z,18.66
2022-11-05T01:25:16.159Z,18.66
2022-11-05T01:30:21.199Z,18.69
2022-11-05T01:35:25.559Z,18.70
2022-11-05T01:40:29.739Z,18.72
2022-11-05T01:45:35.189Z,18.71
2022-11-05T01:50:42.299Z,18.74
2022-11-05T01:55:50.059Z,18.76
2022-11-05T02:00:55.231Z,18.78
2022-11-05T02:06:00.511Z,18.78
2022-11-05T02:11:05.929Z,18.79
2022-11-05T02:16:14.889Z,18.78
2022-11-05T02:21:38.119Z,18.80
2022-11-05T02:27:02.411Z,18.81
2022-11-05T02:32:14.120Z,18.84
2022-11-05T02:37:24.479Z,18.85
2022-11-05T02:42:34.360Z,18.86
2022-11-05T02:47:42.177Z,18.85
2022-11-05T02:52:51.159Z,18.85
2022-11-05T02:57:55.359Z,18.85
2022-11-05T03:02:59.663Z,18.86
2022-11-05T03:08:08.511Z,18.86
2022-11-05T03:13:17.970Z,18.88
2022-11-05T03:18:26.449Z,18.86
2022-11-05T03:23:34.319Z,18.89
2022-11-05T03:28:40.519Z,18.87
2022-11-05T03:33:46.136Z,18.89
2022-11-05T03:38:52.651Z,18.88
2022-11-05T03:43:58.889Z,18.89
2022-11-05T03:49:03.909Z,18.90
2022-11-05T03:54:08.751Z,18.88
2022-11-05T03:59:13.620Z,18.89
2022-11-05T04:04:17.699Z,18.89
2022-11-05T04:09:40.169Z,18.90
2022-11-05T04:14:45.069Z,18.90
2022-11-05T04:20:07.578Z,18.88
2022-11-05T04:25:12.149Z,18.89
2022-11-05T04:30:20.321Z,18.88
2022-11-05T04:35:25.008Z,18.89
2022-11-05T04:40:30.022Z,18.88
2022-11-05T04:45:34.959Z,18.89
2022-11-05T04:50:39.460Z,18.89
2022-11-05T04:55:43.678Z,18.87
2022-11-05T05:00:49.648Z,18.88
2022-11-05T05:05:54.236Z,18.87
2022-11-05T05:11:02.648Z,18.87
2022-11-05T05:16:08.050Z,18.87
2022-11-05T05:21:30.399Z,18.86
2022-11-05T05:26:35.072Z,18.86
2022-11-05T05:31:39.713Z,18.86
2022-11-05T05:36:43.920Z,18.85
2022-11-05T05:41:47.919Z,18.85
2022-11-05T05:46:54.009Z,18.84
2022-11-05T05:51:58.353Z,18.84
2022-11-05T05:57:03.647Z,18.84
2022-11-05T06:02:08.541Z,18.84
2022-11-05T06:07:13.009Z,18.85
2022-11-05T06:12:17.312Z,18.84
2022-11-05T06:17:21.664Z,18.84
2022-11-05T06:22:26.231Z,18.84
2022-11-05T06:27:30.549Z,18.85
2022-11-05T06:32:34.890Z,18.84
2022-11-05T06:37:38.989Z,18.84
2022-11-05T06:42:43.197Z,18.83
2022-11-05T06:47:47.308Z,18.82
2022-11-05T06:52:54.659Z,18.82
2022-11-05T06:57:58.922Z,18.82
2022-11-05T07:03:06.699Z,18.80
2022-11-05T07:08:11.169Z,18.80
2022-11-05T07:13:16.031Z,18.80
2022-11-05T07:18:20.578Z,18.80
2022-11-05T07:23:25.179Z,18.79
2022-11-05T07:28:29.128Z,18.79
2022-11-05T07:33:36.568Z,18.80
2022-11-05T07:38:40.989Z,18.80
2022-11-05T07:43:45.480Z,18.77
2022-11-05T07:48:49.809Z,18.77
2022-11-05T07:53:54.279Z,18.76
2022-11-05T07:58:58.588Z,18.77
2022-11-05T08:04:02.849Z,18.77
2022-11-05T08:09:07.079Z,18.79
2022-11-05T08:14:11.491Z,18.79
2022-11-05T08:19:15.749Z,18.79
2022-11-05T08:24:20.077Z,18.83
2022-11-05T08:29:24.950Z,18.86
2022-11-05T08:34:29.250Z,18.87
2022-11-05T08:39:33.706Z,18.88
2022-11-05T08:44:38.129Z,18.91
2022-11-05T08:49:42.519Z,18.95
2022-11-05T08:54:46.905Z,18.98
2022-11-05T08:59:51.129Z,19.01
2022-11-05T09:04:55.288Z,19.03
2022-11-05T09:09:59.440Z,19.04
2022-11-05T09:15:04.118Z,19.06
2022-11-05T09:20:11.639Z,19.08
2022-11-05T09:25:16.287Z,19.11
2022-11-05T09:30:20.818Z,19.12
2022-11-05T09:35:25.438Z,19.14
2022-11-05T09:40:32.699Z,19.15
2022-11-05T09:45:37.041Z,19.17
2022-11-05T09:50:43.952Z,19.19
2022-11-05T09:55:48.921Z,19.20
2022-11-05T10:00:53.803Z,19.21
2022-11-05T10:06:04.465Z,19.21
2022-11-05T10:11:10.201Z,19.22
2022-11-05T10:16:24.490Z,19.21
2022-11-05T10:21:59.601Z,19.24
2022-11-05T10:26:54.060Z,19.24
2022-11-05T10:31:59.081Z,19.25
2022-11-05T10:37:03.643Z,19.23
2022-11-05T10:42:11.872Z,19.26
2022-11-05T10:47:26.580Z,19.27
2022-11-05T10:52:33.704Z,19.27
2022-11-05T10:57:38.881Z,19.24
2022-11-05T11:02:43.304Z,19.23
2022-11-05T11:07:53.055Z,19.25
2022-11-05T11:12:57.670Z,19.25
2022-11-05T11:18:22.241Z,19.26
2022-11-05T11:23:26.531Z,19.27
2022-11-05T11:28:32.886Z,19.26
2022-11-05T11:33:38.264Z,19.26
2022-11-05T11:38:43.438Z,19.27
2022-11-05T11:43:47.941Z,19.23
2022-11-05T11:48:52.360Z,19.26
2022-11-05T11:53:58.486Z,19.26
2022-11-05T11:59:09.967Z,19.25
2022-11-05T12:04:26.039Z,19.26
2022-11-05T12:09:34.099Z,19.28
2022-11-05T12:14:46.570Z,19.26
2022-11-05T12:20:12.971Z,19.27
2022-11-05T12:25:27.921Z,19.28
2022-11-05T12:30:38.191Z,19.28
2022-11-05T12:35:49.912Z,19.25
2022-11-05T12:41:01.441Z,19.23
2022-11-05T12:46:13.821Z,19.26
2022-11-05T12:51:22.963Z,19.25
2022-11-05T12:56:31.023Z,19.27
2022-11-05T13:01:36.788Z,19.28
2022-11-05T13:06:43.269Z,19.31
2022-11-05T13:11:49.022Z,19.34
2022-11-05T13:16:54.982Z,19.36
2022-11-05T13:22:00.882Z,19.38
2022-11-05T13:27:13.495Z,19.43
2022-11-05T13:32:23.049Z,19.45
2022-11-05T13:37:52.262Z,19.48
2022-11-05T13:43:06.433Z,19.51
2022-11-05T13:48:36.560Z,19.54
2022-11-05T13:53:54.513Z,19.56
2022-11-05T13:59:06.021Z,19.58
2022-11-05T14:04:16.229Z,19.59
2022-11-05T14:09:26.013Z,19.59
2022-11-05T14:14:31.223Z,19.61
2022-11-05T14:19:36.881Z,19.62
2022-11-05T14:24:42.726Z,19.61
2022-11-05T14:29:47.425Z,19.64
2022-11-05T14:34:55.462Z,19.63
2022-11-05T14:40:01.991Z,19.63
2022-11-05T14:45:25.473Z,19.66
2022-11-05T14:50:35.174Z,19.68
2022-11-05T14:55:40.649Z,19.66
2022-11-05T15:00:48.979Z,19.66
2022-11-05T15:06:04.421Z,19.65
2022-11-05T15:11:11.891Z,19.68
2022-11-05T15:16:20.260Z,19.67
2022-11-05T15:21:25.302Z,19.66
2022-11-05T15:26:32.850Z,19.66
2022-11-05T15:31:39.194Z,19.65
2022-11-05T15:36:46.491Z,19.64
2022-11-05T15:41:50.759Z,19.65
2022-11-05T15:47:12.274Z,19.63
2022-11-05T15:52:17.571Z,19.65
2022-11-05T15:57:24.610Z,19.65
2022-11-05T16:02:31.265Z,19.63
2022-11-05T16:07:36.128Z,19.63
2022-11-05T16:12:40.214Z,19.63
2022-11-05T16:17:48.354Z,19.62
2022-11-05T16:22:53.929Z,19.62
2022-11-05T16:27:58.471Z,19.63
2022-11-05T16:33:06.800Z,19.62
2022-11-05T16:38:13.269Z,19.63
2022-11-05T16:43:20.520Z,19.63
2022-11-05T16:48:25.057Z,19.65
2022-11-05T16:53:29.622Z,19.66
2022-11-05T16:58:33.995Z,19.69
2022-11-05T17:03:38.181Z,19.69
2022-11-05T17:08:44.115Z,19.72
2022-11-05T17:13:49.061Z,19.76
2022-11-05T17:18:53.442Z,19.78
2022-11-05T17:23:57.980Z,19.81
2022-11-05T17:29:02.274Z,19.82
2022-11-05T17:34:06.766Z,19.83
2022-11-05T17:39:11.711Z,19.85
2022-11-05T17:44:16.493Z,19.88
2022-11-05T17:49:21.075Z,19.90
2022-11-05T17:54:25.677Z,19.91
2022-11-05T17:59:30.301Z,19.92
2022-11-05T18:04:34.560Z,19.94
2022-11-05T18:09:39.031Z,19.95
2022-11-05T18:14:43.782Z,19.96
2022-11-05T18:19:48.301Z,19.96
2022-11-05T18:24:52.696Z,19.97
2022-11-05T18:29:56.881Z,19.97
2022-11-05T18:35:01.409Z,19.97
2022-11-05T18:40:06.454Z,19.98
2022-11-05T18:45:11.992Z,19.97
2022-11-05T18:50:16.186Z,19.98
2022-11-05T18:55:21.074Z,19.97
2022-11-05T19:00:25.653Z,19.97
2022-11-05T19:05:30.435Z,19.97
2022-11-05T19:10:34.998Z,19.98
2022-11-05T19:15:42.235Z,19.97
2022-11-05T19:20:46.673Z,19.99
2022-11-05T19:25:51.122Z,19.98
2022-11-05T19:30:55.755Z,19.97
2022-11-05T19:36:00.033Z,19.99
2022-11-05T19:41:07.716Z,19.97
2022-11-05T19:46:13.001Z,19.96
2022-11-05T19:51:17.911Z,19.96
2022-11-05T19:56:22.936Z,19.97
2022-11-05T20:01:28.094Z,19.95
2022-11-05T20:06:33.561Z,19.96
2022-11-05T20:11:39.082Z,19.94
2022-11-05T20:16:43.669Z,19.95
2022-11-05T20:21:48.142Z,19.95
2022-11-05T20:26:52.561Z,19.94
2022-11-05T20:31:57.801Z,19.94
2022-11-05T20:37:02.851Z,19.94
2022-11-05T20:42:07.233Z,19.92
2022-11-05T20:47:11.523Z,19.90
2022-11-05T20:52:17.163Z,19.90
2022-11-05T20:57:22.082Z,19.91
2022-11-05T21:02:26.664Z,19.90
2022-11-05T21:07:30.994Z,19.89
2022-11-05T21:12:35.383Z,19.88
2022-11-05T21:17:39.692Z,19.87
2022-11-05T21:22:45.157Z,19.86
2022-11-05T21:27:49.614Z,19.90
2022-11-05T21:32:53.772Z,19.86
2022-11-05T21:37:58.453Z,19.86
2022-11-05T21:43:02.920Z,19.86
2022-11-05T21:48:07.612Z,19.86
2022-11-05T21:53:31.211Z,19.84
2022-11-05T21:58:53.371Z,19.85
2022-11-05T22:04:02.804Z,19.87
2022-11-05T22:09:08.042Z,19.86
2022-11-05T22:14:12.642Z,19.83
2022-11-05T22:19:17.094Z,19.81
2022-11-05T22:24:21.761Z,19.79
2022-11-05T22:29:26.271Z,19.76
2022-11-05T22:34:30.601Z,19.76
2022-11-05T22:39:34.921Z,19.77
2022-11-05T22:44:39.410Z,19.76
2022-11-05T22:49:43.740Z,19.76
2022-11-05T22:54:48.351Z,19.77
2022-11-05T22:59:52.526Z,19.79
2022-11-05T23:04:56.995Z,19.82
2022-11-05T23:10:19.242Z,19.82
2022-11-05T23:15:41.902Z,19.84
2022-11-05T23:21:04.467Z,19.87
2022-11-05T23:26:23.544Z,19.89
2022-11-05T23:31:46.101Z,19.91
2022-11-05T23:37:08.974Z,19.91
2022-11-05T23:42:30.302Z,19.93
2022-11-05T23:47:52.661Z,19.96
2022-11-05T23:52:57.420Z,19.95
2022-11-05T23:58:01.992Z,19.97
